Time;durP1;ratioP1;P1;durP2;ratioP2;P2;SDS_P1;SDS_P2;PMS_P1;PMS_P2;Temp;Humidity;BMP_temperature;BMP_pressure;BME280_temperature;BME280_humidity;BME280_pressure;Samples;Min_cycle;Max_cycle;Signal;HPM_P1;HPM_P2
2023/08/13 00:02:03;;;;;;;15.25;9.55;;;;;;;19.82;96.88;99234.91;5025293;28;20037;-48
2023/08/13 00:04:30;;;;;;;14.02;9.35;;;;;;;20.05;96.72;99275.28;5005747;28;20055;-51
2023/08/13 00:06:55;;;;;;;13.95;9.45;;;;;;;20.02;96.81;99286.09;5025067;28;20049;-50
2023/08/13 00:09:21;;;;;;;18.20;9.80;;;;;;;20.00;97.26;99284.50;5025166;28;20041;-48
2023/08/13 00:11:47;;;;;;;13.23;9.45;;;;;;;19.98;97.22;99289.94;5026495;28;20559;-50
2023/08/13 00:14:13;;;;;;;14.55;9.95;;;;;;;20.03;97.13;99293.06;5027162;28;20048;-48
2023/08/13 00:16:39;;;;;;;15.20;9.77;;;;;;;20.00;97.46;99290.63;5028443;28;20048;-48
2023/08/13 00:19:06;;;;;;;17.38;10.05;;;;;;;20.10;97.53;99298.66;5026188;28;20582;-45
2023/08/13 00:21:31;;;;;;;16.13;9.45;;;;;;;20.17;97.19;99298.06;5023140;28;20049;-45
2023/08/13 00:23:57;;;;;;;17.17;9.80;;;;;;;20.19;96.57;99284.75;5028609;28;20103;-49
2023/08/13 00:26:23;;;;;;;15.18;9.68;;;;;;;20.19;96.29;99285.59;5019095;28;20425;-47
2023/08/13 00:28:50;;;;;;;15.13;9.07;;;;;;;20.18;96.26;99281.28;5028011;28;20115;-48
2023/08/13 00:31:16;;;;;;;14.75;9.50;;;;;;;20.14;96.29;99273.72;5025593;28;20509;-47
2023/08/13 00:33:42;;;;;;;18.30;10.43;;;;;;;20.10;96.59;99261.72;5010648;28;20132;-52
2023/08/13 00:36:08;;;;;;;14.80;10.13;;;;;;;20.05;96.58;99267.34;5028481;28;20131;-48
2023/08/13 00:38:34;;;;;;;13.25;10.52;;;;;;;20.02;96.90;99272.06;5026883;28;20489;-49
2023/08/13 00:41:00;;;;;;;16.35;10.07;;;;;;;19.94;96.95;99258.66;5021789;28;20066;-51
2023/08/13 00:43:26;;;;;;;15.73;10.52;;;;;;;19.67;97.21;99222.09;5027143;28;20051;-51
2023/08/13 00:45:52;;;;;;;14.23;9.70;;;;;;;19.91;97.44;99259.72;5026680;28;20080;-51
2023/08/13 00:48:18;;;;;;;15.05;11.23;;;;;;;19.86;97.72;99260.06;5026944;28;20037;-50
2023/08/13 00:50:44;;;;;;;16.52;11.10;;;;;;;19.74;98.22;99236.44;5018744;28;20041;-50
2023/08/13 00:53:11;;;;;;;14.18;10.50;;;;;;;19.82;98.31;99237.53;5022690;28;20044;-47
2023/08/13 00:55:37;;;;;;;17.25;10.55;;;;;;;19.61;98.79;99220.78;5003507;28;20072;-49
2023/08/13 00:58:03;;;;;;;16.52;10.98;;;;;;;19.66;99.11;99237.06;5010579;28;20064;-46
2023/08/13 01:00:30;;;;;;;14.63;10.45;;;;;;;19.77;99.48;99249.41;5012932;28;20037;-47
2023/08/13 01:02:57;;;;;;;15.13;11.27;;;;;;;19.71;99.77;99252.53;5022203;28;20779;-47
2023/08/13 01:05:31;;;;;;;17.05;11.40;;;;;;;19.58;99.87;99242.09;5027028;28;20398;-48
2023/08/13 01:08:14;;;;;;;14.48;10.57;;;;;;;19.69;100.00;99265.84;4993750;28;20041;-49
2023/08/13 01:10:44;;;;;;;15.65;11.48;;;;;;;19.68;100.00;99261.50;5007889;28;20219;-53
2023/08/13 01:13:33;;;;;;;15.20;11.27;;;;;;;19.66;100.00;99260.81;5026993;28;20059;-51
2023/08/13 01:15:59;;;;;;;18.02;11.85;;;;;;;19.61;100.00;99259.50;5023100;28;20052;-49
2023/08/13 01:18:26;;;;;;;14.48;10.82;;;;;;;19.60;100.00;99255.16;5039404;28;20659;-50
2023/08/13 01:20:52;;;;;;;16.13;11.65;;;;;;;19.61;100.00;99259.50;5022895;28;20053;-45
2023/08/13 01:23:18;;;;;;;16.05;12.45;;;;;;;19.58;100.00;99255.28;5027225;28;20037;-50
2023/08/13 01:25:58;;;;;;;22.55;12.50;;;;;;;19.59;100.00;99254.31;5024514;28;20038;-47
2023/08/13 01:28:36;;;;;;;16.35;11.93;;;;;;;19.60;100.00;99256.00;4994225;28;20417;-52
2023/08/13 01:31:11;;;;;;;18.07;11.80;;;;;;;19.58;100.00;99252.66;5006378;28;20073;-47
2023/08/13 01:33:40;;;;;;;16.17;11.65;;;;;;;19.58;100.00;99246.53;5031546;28;20961;-49
2023/08/13 01:36:06;;;;;;;17.48;11.63;;;;;;;19.57;100.00;99244.88;5014139;28;20041;-49
2023/08/13 01:38:32;;;;;;;18.02;11.98;;;;;;;19.55;100.00;99252.91;5030654;28;20044;-48
2023/08/13 01:41:02;;;;;;;20.13;12.70;;;;;;;19.53;100.00;99241.63;5002835;28;20064;-52
2023/08/13 01:43:29;;;;;;;21.15;12.50;;;;;;;19.50;100.00;99243.66;5027038;28;20041;-49
2023/08/13 01:45:55;;;;;;;18.08;11.90;;;;;;;19.47;100.00;99244.72;5029962;28;20045;-48
2023/08/13 01:48:21;;;;;;;15.55;12.25;;;;;;;19.47;100.00;99239.44;5030634;28;20148;-51
2023/08/13 01:50:47;;;;;;;17.98;12.75;;;;;;;19.21;100.00;99199.28;5028133;28;20132;-47
2023/08/13 01:53:13;;;;;;;16.40;11.90;;;;;;;19.46;100.00;99243.06;5019065;28;20061;-48
2023/08/13 01:55:40;;;;;;;23.65;12.85;;;;;;;19.20;100.00;99197.63;5027730;28;20154;-49
2023/08/13 01:58:07;;;;;;;17.70;11.52;;;;;;;19.44;100.00;99239.69;5012497;28;20460;-49
2023/08/13 02:00:33;;;;;;;15.88;12.18;;;;;;;19.41;100.00;99235.50;5026052;28;20428;-47
2023/08/13 02:03:00;;;;;;;18.25;12.25;;;;;;;19.41;100.00;99235.50;5029013;28;20048;-52
2023/08/13 02:05:26;;;;;;;16.52;11.90;;;;;;;19.25;100.00;99210.44;5027907;28;20529;-47
2023/08/13 02:07:52;;;;;;;17.90;12.38;;;;;;;19.38;100.00;99238.34;5012352;28;20091;-49
2023/08/13 02:10:21;;;;;;;16.48;11.55;;;;;;;19.38;100.00;99242.78;5029423;28;20048;-52
2023/08/13 02:12:47;;;;;;;19.20;11.48;;;;;;;19.38;100.00;99235.72;5027777;28;20071;-49
2023/08/13 02:15:14;;;;;;;18.90;11.98;;;;;;;19.36;100.00;99224.47;5001276;28;20034;-51
2023/08/13 02:17:45;;;;;;;16.15;11.80;;;;;;;19.39;100.00;99226.84;5053423;28;20590;-51
2023/08/13 02:20:11;;;;;;;18.15;12.63;;;;;;;19.40;100.00;99228.53;5031136;28;20045;-50
2023/08/13 02:22:38;;;;;;;19.77;11.48;;;;;;;19.39;100.00;99224.22;5012295;28;20037;-50
2023/08/13 02:25:05;;;;;;;17.52;12.52;;;;;;;19.38;100.00;99219.91;5054431;28;20041;-51
2023/08/13 02:27:31;;;;;;;18.30;12.52;;;;;;;19.39;100.00;99226.84;5028058;28;20042;-46
2023/08/13 02:29:58;;;;;;;17.98;11.52;;;;;;;19.37;100.00;99230.56;5025062;28;20041;-50
2023/08/13 02:32:24;;;;;;;18.13;11.10;;;;;;;19.39;100.00;99231.28;5028817;28;20037;-47
2023/08/13 02:34:51;;;;;;;20.80;12.25;;;;;;;19.40;100.00;99233.81;5021665;28;20045;-47
2023/08/13 02:37:17;;;;;;;18.00;11.23;;;;;;;19.42;100.00;99234.50;5012742;28;20037;-48
2023/08/13 02:39:43;;;;;;;14.95;11.48;;;;;;;19.51;100.00;99237.44;5030633;28;20049;-47
2023/08/13 02:42:09;;;;;;;18.13;12.00;;;;;;;19.56;100.00;99230.84;5024537;28;20224;-50
2023/08/13 02:44:35;;;;;;;14.98;11.10;;;;;;;19.37;100.00;99177.81;5018631;28;20463;-51
2023/08/13 02:47:01;;;;;;;19.45;13.05;;;;;;;19.71;100.00;99216.44;5029493;28;20056;-51
2023/08/13 02:49:27;;;;;;;19.58;11.45;;;;;;;19.77;100.00;99212.50;5030790;28;20367;-49
2023/08/13 02:51:53;;;;;;;18.92;11.07;;;;;;;19.81;100.00;99198.94;5028266;28;20045;-50
2023/08/13 02:54:19;;;;;;;20.98;11.35;;;;;;;19.76;100.00;99182.63;5030627;28;20049;-48
2023/08/13 02:56:45;;;;;;;16.55;11.45;;;;;;;19.97;100.00;99202.97;5029973;28;20041;-47
2023/08/13 02:59:11;;;;;;;16.63;10.68;;;;;;;20.08;100.00;99221.44;5023908;28;20468;-48
2023/08/13 03:01:38;;;;;;;15.93;10.32;;;;;;;20.17;100.00;99220.66;5010018;28;20042;-48
2023/08/13 03:04:06;;;;;;;18.40;11.50;;;;;;;20.25;99.37;99216.44;5021494;28;20061;-50
2023/08/13 03:06:32;;;;;;;16.63;10.52;;;;;;;20.33;98.90;99213.22;5030219;28;20068;-47
2023/08/13 03:08:58;;;;;;;19.52;11.32;;;;;;;20.16;98.04;99174.97;5030050;28;20056;-49
2023/08/13 03:11:24;;;;;;;14.43;10.52;;;;;;;20.44;97.68;99205.25;5037604;28;20121;-48
2023/08/13 03:13:52;;;;;;;15.50;11.40;;;;;;;20.35;97.12;99178.78;5045047;28;20142;-49
2023/08/13 03:16:19;;;;;;;19.00;12.57;;;;;;;20.40;96.71;99181.88;5028670;28;20048;-52
2023/08/13 03:18:45;;;;;;;16.70;10.10;;;;;;;20.56;96.34;99208.69;5028418;28;20073;-46
2023/08/13 03:21:15;;;;;;;16.27;10.85;;;;;;;20.60;95.97;99210.94;5038333;28;20038;-52
2023/08/13 03:23:41;;;;;;;17.05;11.18;;;;;;;20.65;95.66;99213.19;5037479;28;20186;-51
2023/08/13 03:26:07;;;;;;;16.80;10.65;;;;;;;20.68;95.42;99205.84;5026133;28;20604;-52
2023/08/13 03:28:34;;;;;;;14.48;11.02;;;;;;;20.73;94.79;99212.56;5011089;28;20038;-47
2023/08/13 03:31:09;;;;;;;17.75;11.65;;;;;;;20.61;94.53;99188.84;5040073;28;20048;-48
2023/08/13 03:34:07;;;;;;;21.60;11.00;;;;;;;20.81;94.26;99210.13;5002415;28;20539;-52
2023/08/13 03:36:33;;;;;;;14.63;10.65;;;;;;;20.59;93.95;99166.16;5008796;28;20070;-50
2023/08/13 03:38:59;;;;;;;16.00;10.88;;;;;;;20.93;93.67;99214.38;5028132;28;20045;-49
2023/08/13 03:41:25;;;;;;;15.90;11.32;;;;;;;20.66;93.31;99173.47;5059439;28;20582;-53
2023/08/13 03:43:51;;;;;;;19.70;11.45;;;;;;;20.92;92.85;99212.69;5027105;28;20095;-52
2023/08/13 03:46:17;;;;;;;14.40;10.75;;;;;;;20.81;92.04;99188.97;5026422;28;20171;-49
2023/08/13 03:48:43;;;;;;;17.45;11.48;;;;;;;21.02;91.99;99210.94;5011153;28;20131;-50
2023/08/13 03:51:09;;;;;;;17.88;12.00;;;;;;;21.13;91.76;99211.72;5027094;28;20048;-51
2023/08/13 03:53:34;;;;;;;15.48;11.00;;;;;;;21.09;91.35;99193.63;5026963;28;20520;-50
2023/08/13 03:56:00;;;;;;;16.92;10.85;;;;;;;21.39;90.65;99222.75;5040521;28;20037;-50
2023/08/13 03:58:28;;;;;;;15.05;11.02;;;;;;;21.36;90.09;99199.19;5010647;28;20037;-46
2023/08/13 04:00:55;;;;;;;16.97;10.57;;;;;;;21.62;89.21;99223.38;5024788;28;20041;-51
2023/08/13 04:03:21;;;;;;;16.10;10.77;;;;;;;21.76;88.60;99223.03;5027453;28;20816;-51
2023/08/13 04:05:47;;;;;;;19.63;11.35;;;;;;;21.81;87.69;99222.63;5019865;28;20041;-51
2023/08/13 04:08:13;;;;;;;16.38;11.75;;;;;;;21.78;87.07;99222.88;5027585;28;20037;-49
2023/08/13 04:10:39;;;;;;;18.52;11.80;;;;;;;21.83;86.71;99220.66;4990931;28;20038;-49
2023/08/13 04:13:05;;;;;;;15.45;10.77;;;;;;;22.08;85.91;99228.16;5026715;28;20044;-51
2023/08/13 04:15:31;;;;;;;16.42;11.52;;;;;;;22.28;84.90;99224.56;5049109;28;20038;-52
2023/08/13 04:17:57;;;;;;;18.52;12.60;;;;;;;22.50;83.90;99220.81;5010638;28;20468;-53
2023/08/13 04:20:25;;;;;;;22.17;12.07;;;;;;;22.73;82.35;99216.91;4994758;28;20064;-51
2023/08/13 04:22:51;;;;;;;24.27;12.75;;;;;;;22.84;81.15;99221.22;5027081;28;20521;-53
2023/08/13 04:25:17;;;;;;;18.15;12.25;;;;;;;22.96;80.49;99213.97;5021579;28;20080;-51
2023/08/13 04:27:43;;;;;;;18.90;12.43;;;;;;;23.21;79.44;99210.69;5025649;28;20444;-52
2023/08/13 04:30:09;;;;;;;21.30;12.50;;;;;;;23.52;78.32;99211.31;5022533;28;20044;-51
2023/08/13 04:32:37;;;;;;;22.50;13.32;;;;;;;23.59;77.32;99218.56;5026925;28;20045;-50
2023/08/13 04:35:04;;;;;;;20.38;14.60;;;;;;;23.47;76.71;99221.53;5027222;28;20037;-51
2023/08/13 04:37:31;;;;;;;22.10;14.15;;;;;;;23.16;77.08;99213.78;5023421;28;20049;-51
2023/08/13 04:39:57;;;;;;;21.50;14.57;;;;;;;22.97;77.95;99211.19;5024268;28;20518;-53
2023/08/13 04:42:24;;;;;;;24.35;14.57;;;;;;;22.94;78.41;99216.75;5009021;28;20436;-50
2023/08/13 04:44:50;;;;;;;16.50;13.57;;;;;;;23.02;78.40;99208.09;5021357;28;20042;-51
2023/08/13 04:47:16;;;;;;;22.52;14.73;;;;;;;23.10;77.87;99206.38;5024630;28;21627;-50
2023/08/13 04:49:42;;;;;;;18.65;14.05;;;;;;;23.22;77.27;99204.41;5048241;28;20073;-51
2023/08/13 04:52:09;;;;;;;21.45;14.75;;;;;;;23.19;77.06;99202.88;5028045;28;20053;-49
2023/08/13 04:54:35;;;;;;;18.35;15.02;;;;;;;23.16;76.58;99197.03;5028039;28;20052;-47
2023/08/13 04:57:01;;;;;;;21.88;15.13;;;;;;;23.01;76.87;99201.97;5022066;28;20437;-47
2023/08/13 04:59:29;;;;;;;23.25;15.05;;;;;;;22.88;77.32;99193.44;5009186;28;20532;-52
2023/08/13 05:01:55;;;;;;;19.88;15.23;;;;;;;22.94;77.61;99195.53;5024797;28;20049;-51
2023/08/13 05:04:21;;;;;;;19.42;14.52;;;;;;;22.94;77.65;99189.41;5009230;28;20057;-50
2023/08/13 05:06:47;;;;;;;20.95;15.55;;;;;;;23.09;77.62;99196.75;5023701;28;20048;-51
2023/08/13 05:09:13;;;;;;;21.33;14.70;;;;;;;23.33;76.93;99190.13;5031254;28;20041;-52
2023/08/13 05:11:39;;;;;;;23.13;15.18;;;;;;;23.53;76.24;99191.75;5026465;28;20033;-50
2023/08/13 05:14:06;;;;;;;20.27;15.40;;;;;;;23.46;75.21;99180.03;5007949;28;20114;-52
2023/08/13 05:16:32;;;;;;;21.15;15.07;;;;;;;23.73;74.54;99184.53;5048040;28;20038;-49
2023/08/13 05:18:58;;;;;;;21.27;14.02;;;;;;;23.92;73.63;99187.91;5009210;28;20114;-53
2023/08/13 05:21:24;;;;;;;20.55;13.25;;;;;;;24.04;72.80;99183.22;5023091;28;20029;-52
2023/08/13 05:23:51;;;;;;;19.15;14.50;;;;;;;24.23;71.78;99180.47;5024541;28;20509;-51
2023/08/13 05:26:16;;;;;;;17.67;12.98;;;;;;;24.33;71.43;99173.25;5026400;28;20041;-52
2023/08/13 05:28:43;;;;;;;21.70;12.52;;;;;;;24.07;71.19;99159.84;5027462;28;20045;-48
2023/08/13 05:31:09;;;;;;;17.05;11.65;;;;;;;24.04;70.98;99178.75;5009498;28;20037;-51
2023/08/13 05:33:35;;;;;;;16.67;11.55;;;;;;;23.85;70.72;99173.56;5026488;28;20124;-48
2023/08/13 05:36:02;;;;;;;14.15;9.85;;;;;;;23.76;70.65;99170.97;5047943;28;20470;-51
2023/08/13 05:38:29;;;;;;;14.65;10.20;;;;;;;23.54;70.32;99162.44;5018133;28;20524;-51
2023/08/13 05:40:55;;;;;;;13.82;9.38;;;;;;;23.30;70.50;99148.81;5024240;28;20037;-48
2023/08/13 05:43:20;;;;;;;16.00;9.65;;;;;;;23.39;70.58;99169.16;5025268;28;20041;-47
2023/08/13 05:45:47;;;;;;;14.05;9.15;;;;;;;23.20;70.59;99130.28;5006447;28;20045;-51
2023/08/13 05:48:14;;;;;;;12.25;9.98;;;;;;;23.37;70.78;99178.25;5022674;28;20038;-52
2023/08/13 05:50:40;;;;;;;12.40;9.05;;;;;;;23.13;70.93;99161.00;5026124;28;20895;-51
2023/08/13 05:53:06;;;;;;;12.95;8.75;;;;;;;23.29;71.28;99172.84;5025539;28;20112;-50
2023/08/13 05:55:32;;;;;;;11.18;8.52;;;;;;;23.03;70.94;99159.41;5026990;28;20053;-53
2023/08/13 05:57:58;;;;;;;9.60;7.90;;;;;;;22.94;71.11;99161.06;5027039;28;20037;-52
2023/08/13 06:00:24;;;;;;;15.30;8.07;;;;;;;23.17;70.26;99174.84;5008736;28;20030;-50
2023/08/13 06:02:50;;;;;;;11.18;7.82;;;;;;;23.28;69.13;99173.81;5030301;28;20489;-47
2023/08/13 06:05:16;;;;;;;10.93;7.68;;;;;;;23.30;68.66;99147.97;5026239;28;20090;-50
2023/08/13 06:07:42;;;;;;;12.05;7.55;;;;;;;23.59;68.24;99160.16;5043773;28;20041;-48
2023/08/13 06:10:08;;;;;;;8.63;7.32;;;;;;;23.57;67.79;99159.47;5024381;28;20037;-50
2023/08/13 06:12:34;;;;;;;12.57;8.10;;;;;;;23.32;67.61;99146.00;5032918;28;20057;-45
2023/08/13 06:15:00;;;;;;;9.70;7.88;;;;;;;23.20;67.71;99134.75;5023932;28;20529;-47
2023/08/13 06:17:26;;;;;;;10.50;7.30;;;;;;;23.22;67.77;99161.97;5022888;28;20055;-46
2023/08/13 06:19:52;;;;;;;10.35;7.65;;;;;;;23.15;68.24;99155.56;5029253;28;20151;-50
2023/08/13 06:22:19;;;;;;;8.95;7.72;;;;;;;23.09;68.30;99153.47;5051327;28;20069;-50
2023/08/13 06:24:44;;;;;;;15.27;7.97;;;;;;;23.19;68.53;99156.94;5022376;28;20045;-48
2023/08/13 06:27:11;;;;;;;9.27;7.20;;;;;;;23.18;68.60;99163.25;5025092;28;20041;-49
2023/08/13 06:29:37;;;;;;;10.07;8.07;;;;;;;23.04;68.69;99155.75;5027311;28;20056;-46
2023/08/13 06:32:05;;;;;;;12.60;8.20;;;;;;;23.10;68.33;99163.97;5028092;28;20155;-48
2023/08/13 06:34:31;;;;;;;10.05;6.35;;;;;;;23.33;67.36;99153.00;5012363;28;20525;-49
2023/08/13 06:36:57;;;;;;;6.72;5.85;;;;;;;23.42;66.57;99152.94;5029553;28;20049;-49
2023/08/13 06:39:24;;;;;;;9.80;5.72;;;;;;;23.35;66.52;99138.59;5028564;28;20052;-47
2023/08/13 06:41:51;;;;;;;10.63;5.60;;;;;;;23.96;65.46;99162.75;5027518;28;20531;-50
2023/08/13 06:44:19;;;;;;;9.15;5.28;;;;;;;24.49;63.65;99161.94;5023499;28;20092;-48
2023/08/13 06:46:46;;;;;;;7.68;5.15;;;;;;;24.63;63.14;99155.22;5016128;28;20030;-46
2023/08/13 06:49:13;;;;;;;11.15;4.70;;;;;;;24.52;62.75;99155.47;5028274;28;20131;-48
2023/08/13 06:51:38;;;;;;;8.30;5.10;;;;;;;24.64;61.82;99157.72;5026843;28;20069;-50
2023/08/13 06:54:05;;;;;;;7.43;5.25;;;;;;;24.60;61.34;99161.66;5027361;28;20079;-46
2023/08/13 06:56:32;;;;;;;7.30;4.75;;;;;;;24.57;60.62;99159.34;5033993;28;20041;-48
2023/08/13 06:58:58;;;;;;;7.18;4.30;;;;;;;24.58;59.67;99157.50;5025252;28;20596;-51
2023/08/13 07:01:24;;;;;;;6.20;4.28;;;;;;;24.93;58.38;99133.53;5024397;28;20063;-47
2023/08/13 07:03:50;;;;;;;6.55;3.67;;;;;;;25.80;56.20;99167.06;5028581;28;20057;-51
2023/08/13 07:06:16;;;;;;;6.00;4.63;;;;;;;26.53;54.74;99150.22;5030293;28;20037;-50
2023/08/13 07:08:42;;;;;;;9.60;4.32;;;;;;;27.64;52.30;99174.34;5028598;28;20429;-50
2023/08/13 07:11:08;;;;;;;5.10;3.25;;;;;;;27.36;51.29;99174.78;5008406;28;20037;-49
2023/08/13 07:13:33;;;;;;;4.10;3.30;;;;;;;27.07;50.29;99182.50;5027848;28;20460;-48
2023/08/13 07:15:59;;;;;;;5.55;3.70;;;;;;;26.82;50.45;99178.19;5009870;28;20048;-48
2023/08/13 07:18:26;;;;;;;5.70;3.20;;;;;;;26.17;50.69;99188.78;5026692;28;20037;-50
2023/08/13 07:20:52;;;;;;;6.28;3.47;;;;;;;25.19;52.23;99179.56;4995459;28;20567;-52
2023/08/13 07:23:18;;;;;;;4.40;2.97;;;;;;;24.45;53.51;99179.16;5048783;28;20042;-50
2023/08/13 07:25:44;;;;;;;8.20;3.42;;;;;;;23.96;55.46;99215.00;5023832;28;20118;-49
2023/08/13 07:28:10;;;;;;;5.57;3.60;;;;;;;23.55;57.24;99203.88;5027082;28;20047;-49
2023/08/13 07:30:35;;;;;;;5.25;3.45;;;;;;;23.27;58.56;99191.56;5025737;28;20033;-49
2023/08/13 07:33:01;;;;;;;6.55;3.75;;;;;;;23.04;59.63;99206.13;5027863;28;20120;-47
2023/08/13 07:35:27;;;;;;;7.72;3.53;;;;;;;22.75;60.60;99195.59;5023549;28;20686;-50
2023/08/13 07:37:53;;;;;;;9.07;3.75;;;;;;;22.82;60.76;99201.97;5028476;28;20085;-51
2023/08/13 07:40:19;;;;;;;6.57;2.90;;;;;;;22.96;60.33;99206.84;5025108;28;20049;-52
2023/08/13 07:42:45;;;;;;;9.38;3.38;;;;;;;23.14;59.82;99206.94;5029169;28;20429;-49
2023/08/13 07:45:11;;;;;;;4.65;3.40;;;;;;;23.18;58.86;99205.69;5019762;28;20069;-50
2023/08/13 07:47:37;;;;;;;4.28;2.97;;;;;;;23.02;58.51;99213.41;5026388;28;20045;-49
2023/08/13 07:50:04;;;;;;;3.05;2.45;;;;;;;22.68;58.48;99208.53;5019290;28;20045;-50
2023/08/13 07:52:31;;;;;;;6.22;1.92;;;;;;;22.60;58.86;99221.66;5019545;28;20041;-49
2023/08/13 07:54:57;;;;;;;5.00;2.40;;;;;;;22.40;59.33;99199.59;5024133;28;20070;-46
2023/08/13 07:57:24;;;;;;;2.15;1.95;;;;;;;22.25;59.64;99211.56;4993551;28;20103;-55
2023/08/13 07:59:50;;;;;;;2.92;2.28;;;;;;;22.17;60.05;99223.84;5024516;28;20124;-47
2023/08/13 08:02:15;;;;;;;6.75;2.45;;;;;;;22.09;60.42;99224.50;5023516;28;20041;-50
2023/08/13 08:04:42;;;;;;;2.83;2.30;;;;;;;22.02;60.63;99212.81;5021936;28;20090;-51
2023/08/13 08:07:08;;;;;;;3.08;2.40;;;;;;;21.93;60.96;99208.28;5026889;28;20064;-48
2023/08/13 08:09:34;;;;;;;4.38;2.10;;;;;;;21.69;61.31;99191.94;5027343;28;20037;-51
2023/08/13 08:12:00;;;;;;;4.82;3.22;;;;;;;21.82;61.89;99226.94;5022468;28;20051;-52
2023/08/13 08:14:26;;;;;;;3.22;2.13;;;;;;;21.80;62.33;99221.78;5023279;28;20041;-46
2023/08/13 08:16:57;;;;;;;4.30;2.65;;;;;;;21.83;62.27;99218.00;5021607;28;20037;-51
2023/08/13 08:19:23;;;;;;;4.95;2.58;;;;;;;21.85;62.66;99229.31;5021135;28;20132;-49
2023/08/13 08:21:49;;;;;;;3.38;2.40;;;;;;;21.85;62.40;99229.31;4983200;28;20894;-48
2023/08/13 08:24:15;;;;;;;5.57;2.38;;;;;;;22.06;62.22;99226.59;4988808;28;20521;-49
2023/08/13 08:26:41;;;;;;;4.40;2.65;;;;;;;22.20;61.82;99221.75;5018848;28;20532;-50
2023/08/13 08:29:12;;;;;;;5.10;2.20;;;;;;;22.31;61.57;99226.09;5007994;28;20056;-52
2023/08/13 08:31:39;;;;;;;3.10;2.08;;;;;;;22.49;61.30;99218.28;4975299;28;20469;-47
2023/08/13 08:34:05;;;;;;;3.97;2.55;;;;;;;23.03;60.20;99228.34;5027124;28;20041;-48
2023/08/13 08:36:30;;;;;;;4.07;2.47;;;;;;;23.26;59.33;99234.97;5026456;28;20045;-49
2023/08/13 08:38:56;;;;;;;2.45;2.15;;;;;;;23.29;59.23;99232.00;5025143;28;20036;-52
2023/08/13 08:41:22;;;;;;;3.40;2.35;;;;;;;22.62;59.81;99205.59;5026472;28;20045;-48
2023/08/13 08:43:48;;;;;;;2.50;2.30;;;;;;;22.29;60.91;99213.00;5026238;28;20799;-52
2023/08/13 08:46:15;;;;;;;3.65;2.90;;;;;;;22.06;61.82;99221.31;5023730;28;20041;-52
2023/08/13 08:48:42;;;;;;;3.95;2.38;;;;;;;21.96;62.60;99245.97;5026718;28;20439;-51
2023/08/13 08:51:08;;;;;;;11.65;3.10;;;;;;;21.91;63.07;99249.94;5010283;28;20041;-49
2023/08/13 08:53:34;;;;;;;2.95;2.55;;;;;;;21.85;63.66;99251.31;5019923;28;20048;-46
2023/08/13 08:56:00;;;;;;;3.90;2.58;;;;;;;21.81;64.04;99257.03;5027686;28;20041;-50
2023/08/13 08:58:27;;;;;;;3.20;2.22;;;;;;;21.57;64.21;99228.22;5028080;28;20061;-50
2023/08/13 09:00:59;;;;;;;5.25;2.63;;;;;;;21.75;64.36;99255.75;5009689;28;20045;-50
2023/08/13 09:03:27;;;;;;;3.97;2.60;;;;;;;21.77;64.65;99250.34;5027256;28;20103;-53
2023/08/13 09:05:53;;;;;;;4.07;2.85;;;;;;;21.77;65.00;99253.78;5010113;28;20115;-53
2023/08/13 09:08:19;;;;;;;3.55;2.80;;;;;;;21.79;64.97;99254.50;5026755;28;20532;-49
2023/08/13 09:10:45;;;;;;;7.90;2.95;;;;;;;21.68;65.44;99259.03;5025810;28;20065;-48
2023/08/13 09:13:11;;;;;;;4.28;2.65;;;;;;;21.86;65.59;99260.09;5027927;28;20551;-48
2023/08/13 09:15:50;;;;;;;4.60;2.88;;;;;;;22.50;64.13;99255.25;5025618;28;20081;-46
2023/08/13 09:18:16;;;;;;;2.72;2.53;;;;;;;22.91;62.94;99267.41;5010108;28;20509;-48
2023/08/13 09:20:44;;;;;;;4.88;2.67;;;;;;;22.64;62.63;99243.41;5021958;28;20037;-49
2023/08/13 09:23:10;;;;;;;4.67;2.57;;;;;;;22.47;62.96;99270.56;4990442;28;20575;-48
2023/08/13 09:25:37;;;;;;;4.13;2.80;;;;;;;22.36;63.58;99263.59;5023244;28;20477;-47
2023/08/13 09:28:03;;;;;;;3.10;2.60;;;;;;;22.58;62.80;99270.44;5026326;28;20060;-50
2023/08/13 09:30:31;;;;;;;9.05;2.20;;;;;;;22.39;62.84;99263.34;5021960;28;20045;-50
2023/08/13 09:32:58;;;;;;;7.78;2.60;;;;;;;22.24;63.08;99270.00;5024362;28;20119;-48
2023/08/13 09:35:25;;;;;;;2.97;2.67;;;;;;;21.96;63.87;99275.06;5026371;28;20041;-49
2023/08/13 09:37:52;;;;;;;3.58;2.53;;;;;;;21.73;64.59;99280.66;5009788;28;20048;-48
2023/08/13 09:40:18;;;;;;;4.47;2.42;;;;;;;21.45;65.52;99279.56;5023555;28;20037;-45
2023/08/13 09:42:46;;;;;;;2.60;1.98;;;;;;;21.26;66.16;99282.91;5025553;28;20045;-50
2023/08/13 09:45:12;;;;;;;2.30;2.10;;;;;;;21.15;66.62;99285.63;5008565;28;20099;-49
2023/08/13 09:47:41;;;;;;;4.72;2.25;;;;;;;21.06;67.02;99295.16;5006361;28;20069;-47
2023/08/13 09:50:09;;;;;;;3.20;2.30;;;;;;;21.02;67.49;99301.66;5025926;28;20045;-51
2023/08/13 09:52:34;;;;;;;3.15;2.10;;;;;;;20.94;67.98;99295.31;5009359;28;20135;-51
2023/08/13 09:55:08;;;;;;;2.17;1.95;;;;;;;20.88;68.35;99294.06;5028362;28;20132;-50
2023/08/13 09:57:34;;;;;;;4.68;2.20;;;;;;;20.74;68.41;99267.91;5029978;28;20061;-48
2023/08/13 10:00:00;;;;;;;2.85;2.22;;;;;;;20.87;68.68;99299.44;5030645;28;20037;-51
2023/08/13 10:02:27;;;;;;;2.58;2.13;;;;;;;20.85;68.99;99294.28;5027305;28;20322;-48
2023/08/13 10:04:54;;;;;;;2.85;2.20;;;;;;;20.70;69.38;99266.50;5029545;28;20063;-52
2023/08/13 10:07:20;;;;;;;2.30;1.90;;;;;;;20.93;69.31;99288.38;5029929;28;20128;-48
2023/08/13 10:09:46;;;;;;;5.20;2.50;;;;;;;21.08;69.04;99287.09;5025975;28;20106;-48
2023/08/13 10:12:12;;;;;;;3.70;2.20;;;;;;;21.08;68.51;99250.09;5013032;28;20041;-52
2023/08/13 10:14:39;;;;;;;4.05;2.53;;;;;;;21.33;68.16;99283.25;5010205;28;20041;-50
2023/08/13 10:17:06;;;;;;;5.57;2.63;;;;;;;21.28;67.86;99288.94;5012068;28;20091;-50
2023/08/13 10:19:36;;;;;;;3.17;2.53;;;;;;;21.27;67.54;99284.59;5042911;28;20049;-48
2023/08/13 10:22:02;;;;;;;4.78;2.63;;;;;;;21.12;67.42;99262.91;5030528;28;20045;-52
2023/08/13 10:24:29;;;;;;;3.88;2.80;;;;;;;21.18;67.45;99282.75;5029871;28;20730;-48
2023/08/13 10:26:58;;;;;;;4.40;2.95;;;;;;;21.03;67.52;99261.06;5029327;28;20052;-48
2023/08/13 10:29:25;;;;;;;4.45;2.75;;;;;;;21.23;67.28;99291.13;5024206;28;20159;-51
2023/08/13 10:31:54;;;;;;;5.80;3.63;;;;;;;21.18;67.42;99295.97;5019264;28;20121;-47
2023/08/13 10:34:41;;;;;;;4.40;3.00;;;;;;;21.20;67.38;99298.50;5030615;28;20041;-51
2023/08/13 10:37:14;;;;;;;5.40;3.25;;;;;;;21.10;67.73;99298.38;5020970;28;20042;-53
2023/08/13 10:39:41;;;;;;;4.13;3.00;;;;;;;20.84;68.17;99278.56;5016010;28;20048;-52
2023/08/13 10:42:34;;;;;;;4.57;2.97;;;;;;;20.81;69.16;99305.25;5033390;28;20128;-50
2023/08/13 10:45:08;;;;;;;4.22;3.10;;;;;;;20.72;69.38;99309.50;5028782;28;20041;-50
2023/08/13 10:47:38;;;;;;;5.43;3.58;;;;;;;20.61;70.37;99315.66;5022891;28;20038;-51
2023/08/13 10:50:06;;;;;;;6.28;3.53;;;;;;;20.44;72.34;99313.53;5021209;28;20053;-52
2023/08/13 10:52:32;;;;;;;4.72;3.58;;;;;;;20.32;73.33;99311.03;5030309;28;20069;-49
2023/08/13 10:54:58;;;;;;;4.40;4.00;;;;;;;20.21;74.28;99309.22;5012356;28;20076;-51
2023/08/13 10:57:30;;;;;;;5.30;3.95;;;;;;;20.15;75.53;99328.19;5029144;28;20072;-50
2023/08/13 10:59:57;;;;;;;5.93;4.05;;;;;;;19.89;77.75;99328.44;5022943;28;20041;-47
2023/08/13 11:02:24;;;;;;;5.50;4.00;;;;;;;19.36;81.86;99324.66;5024785;28;20127;-49
2023/08/13 11:04:50;;;;;;;6.85;4.50;;;;;;;19.06;85.27;99334.84;5027818;28;20525;-46
2023/08/13 11:07:16;;;;;;;5.95;4.43;;;;;;;18.90;88.38;99339.56;5028660;28;20044;-49
2023/08/13 11:09:42;;;;;;;7.20;4.32;;;;;;;18.81;90.57;99334.97;5025953;28;20083;-49
2023/08/13 11:12:09;;;;;;;6.65;4.32;;;;;;;18.70;91.44;99305.97;5028766;28;20060;-48
2023/08/13 11:14:36;;;;;;;6.15;4.45;;;;;;;19.15;91.44;99325.44;5028530;28;20041;-52
2023/08/13 11:17:02;;;;;;;6.57;3.60;;;;;;;19.29;90.75;99333.97;5026074;28;20219;-49
2023/08/13 11:19:28;;;;;;;5.25;4.20;;;;;;;19.36;90.44;99334.34;5029995;28;20505;-50
2023/08/13 11:21:56;;;;;;;4.40;3.60;;;;;;;19.40;90.13;99328.72;5028158;28;20073;-52
2023/08/13 11:24:22;;;;;;;5.80;4.07;;;;;;;19.45;89.73;99329.25;5028528;28;20428;-52